createdAt,value
2022-12-03T00:02:21.047Z,78.71
2022-12-03T00:07:41.528Z,78.85
2022-12-03T00:13:02.235Z,78.81
2022-12-03T00:18:22.413Z,78.84
2022-12-03T00:23:43.484Z,78.83
2022-12-03T00:29:03.976Z,78.77
2022-12-03T00:34:24.346Z,78.61
2022-12-03T00:39:44.772Z,78.54
2022-12-03T00:45:06.039Z,78.45
2022-12-03T00:50:28.017Z,78.42
2022-12-03T00:55:50.607Z,78.47
2022-12-03T01:01:11.597Z,78.61
2022-12-03T01:06:32.126Z,78.56
2022-12-03T01:11:52.789Z,78.57
2022-12-03T01:17:13.706Z,78.32
2022-12-03T01:22:34.270Z,78.48
2022-12-03T01:27:54.645Z,78.41
2022-12-03T01:33:15.313Z,78.58
2022-12-03T01:38:36.088Z,78.51
2022-12-03T01:43:57.864Z,78.71
2022-12-03T01:49:22.031Z,78.78
2022-12-03T01:54:47.910Z,78.74
2022-12-03T02:00:28.256Z,78.78
2022-12-03T02:05:51.246Z,78.68
2022-12-03T02:11:21.451Z,78.47
2022-12-03T02:16:43.526Z,78.23
2022-12-03T02:22:22.606Z,78.27
2022-12-03T02:27:43.448Z,78.46
2022-12-03T02:33:04.171Z,78.53
2022-12-03T02:38:29.626Z,78.44
2022-12-03T02:43:51.238Z,78.46
2022-12-03T02:49:11.980Z,78.34
2022-12-03T02:54:32.657Z,78.47
2022-12-03T03:00:10.111Z,78.40
2022-12-03T03:05:31.346Z,78.13
2022-12-03T03:10:52.093Z,78.23
2022-12-03T03:16:12.884Z,77.99
2022-12-03T03:21:33.661Z,77.78
2022-12-03T03:26:54.723Z,77.66
2022-12-03T03:32:15.301Z,77.58
2022-12-03T03:37:36.500Z,77.27
2022-12-03T03:42:57.417Z,77.36
2022-12-03T03:48:18.645Z,77.27
2022-12-03T03:53:42.825Z,77.51
2022-12-03T03:59:03.906Z,77.42
2022-12-03T04:04:29.183Z,77.47
2022-12-03T04:09:49.876Z,77.37
2022-12-03T04:15:10.448Z,77.35
2022-12-03T04:20:30.901Z,77.37
2022-12-03T04:26:11.158Z,77.22
2022-12-03T04:31:50.107Z,77.11
2022-12-03T04:37:10.744Z,77.12
2022-12-03T04:42:31.542Z,77.05
2022-12-03T04:47:52.105Z,76.94
2022-12-03T04:53:12.778Z,76.90
2022-12-03T04:58:33.434Z,76.83
2022-12-03T05:03:53.950Z,76.71
2022-12-03T05:09:14.591Z,76.69
2022-12-03T05:14:34.846Z,76.54
2022-12-03T05:20:14.096Z,76.45
2022-12-03T05:25:34.659Z,76.38
2022-12-03T05:30:55.225Z,76.25
2022-12-03T05:36:16.037Z,76.29
2022-12-03T05:41:55.340Z,76.18
2022-12-03T05:47:15.769Z,76.00
2022-12-03T05:52:36.198Z,75.98
2022-12-03T05:57:56.714Z,75.86
2022-12-03T06:03:17.468Z,75.73
2022-12-03T06:08:38.162Z,75.96
2022-12-03T06:13:58.529Z,75.77
2022-12-03T06:19:18.949Z,75.70
2022-12-03T06:24:39.468Z,75.60
2022-12-03T06:30:00.031Z,75.59
2022-12-03T06:35:20.942Z,75.58
2022-12-03T06:40:42.707Z,75.61
2022-12-03T06:46:03.984Z,75.50
2022-12-03T06:51:24.447Z,75.44
2022-12-03T06:56:45.794Z,75.27
2022-12-03T07:02:11.102Z,75.38
2022-12-03T07:07:31.890Z,75.11
2022-12-03T07:12:52.235Z,75.04
2022-12-03T07:18:13.009Z,75.06
2022-12-03T07:23:33.670Z,74.93
2022-12-03T07:28:54.314Z,74.74
2022-12-03T07:34:14.713Z,74.48
2022-12-03T07:39:35.272Z,74.05
2022-12-03T07:44:56.041Z,73.80
2022-12-03T07:50:17.774Z,73.74
2022-12-03T07:55:38.032Z,73.57
2022-12-03T08:00:58.780Z,73.27
2022-12-03T08:06:19.335Z,73.00
2022-12-03T08:11:40.078Z,73.17
2022-12-03T08:17:00.989Z,73.34
2022-12-03T08:22:22.241Z,73.63
2022-12-03T08:27:42.664Z,73.78
2022-12-03T08:33:17.479Z,73.97
2022-12-03T08:38:38.519Z,74.11
2022-12-03T08:44:01.183Z,74.12
2022-12-03T08:49:22.244Z,73.85
2022-12-03T08:54:43.723Z,73.86
2022-12-03T09:00:20.330Z,73.88
2022-12-03T09:05:40.799Z,73.78
2022-12-03T09:11:01.472Z,73.81
2022-12-03T09:16:22.227Z,73.87
2022-12-03T09:21:43.069Z,74.06
2022-12-03T09:27:04.001Z,73.81
2022-12-03T09:32:24.587Z,74.00
2022-12-03T09:37:45.311Z,73.79
2022-12-03T09:43:05.966Z,73.59
2022-12-03T09:48:26.989Z,73.52
2022-12-03T09:53:48.011Z,72.43
2022-12-03T09:59:16.031Z,72.34
2022-12-03T10:04:36.696Z,71.90
2022-12-03T10:09:57.335Z,72.12
2022-12-03T10:15:22.901Z,72.11
2022-12-03T10:20:44.302Z,71.70
2022-12-03T10:26:04.923Z,71.80
2022-12-03T10:31:36.353Z,72.10
2022-12-03T10:37:09.999Z,71.68
2022-12-03T10:42:36.711Z,71.65
2022-12-03T10:48:11.937Z,71.26
2022-12-03T10:53:35.655Z,71.55
2022-12-03T10:58:56.605Z,71.72
2022-12-03T11:04:35.255Z,71.87
2022-12-03T11:09:56.013Z,71.89
2022-12-03T11:15:16.678Z,72.23
2022-12-03T11:20:46.303Z,72.31
2022-12-03T11:26:07.371Z,72.69
2022-12-03T11:31:42.154Z,72.89
2022-12-03T11:37:11.860Z,72.84
2022-12-03T11:42:40.327Z,72.60
2022-12-03T11:48:01.080Z,72.88
2022-12-03T11:53:25.608Z,73.35
2022-12-03T11:58:47.481Z,73.58
2022-12-03T12:04:29.204Z,73.50
2022-12-03T12:10:00.958Z,73.97
2022-12-03T12:15:34.352Z,73.99
2022-12-03T12:20:55.209Z,73.81
2022-12-03T12:26:15.701Z,74.01
2022-12-03T12:31:36.441Z,74.17
2022-12-03T12:36:59.772Z,74.08
2022-12-03T12:42:36.072Z,74.22
2022-12-03T12:48:03.214Z,74.26
2022-12-03T12:53:27.373Z,74.09
2022-12-03T12:58:48.398Z,74.39
2022-12-03T13:04:14.052Z,74.21
2022-12-03T13:09:34.493Z,73.99
2022-12-03T13:14:59.292Z,74.06
2022-12-03T13:20:20.499Z,74.17
2022-12-03T13:31:25.308Z,74.26
2022-12-03T13:36:52.035Z,74.33
2022-12-03T13:42:45.076Z,74.26
2022-12-03T13:48:21.289Z,74.40
2022-12-03T13:53:41.467Z,74.36
2022-12-03T13:59:03.985Z,74.52
2022-12-03T14:04:24.348Z,74.93
2022-12-03T14:09:45.028Z,74.74
2022-12-03T14:15:06.838Z,74.93
2022-12-03T14:20:27.203Z,75.16
2022-12-03T14:25:47.966Z,75.16
2022-12-03T14:31:08.360Z,75.32
2022-12-03T14:36:29.035Z,75.17
2022-12-03T14:42:08.809Z,75.12
2022-12-03T14:47:29.496Z,75.26
2022-12-03T14:52:49.887Z,75.24
2022-12-03T14:58:10.748Z,75.10
2022-12-03T15:03:31.362Z,74.99
2022-12-03T15:08:51.981Z,75.00
2022-12-03T15:14:12.707Z,74.97
2022-12-03T15:19:33.467Z,75.00
2022-12-03T15:24:53.794Z,74.89
2022-12-03T15:30:14.877Z,75.19
2022-12-03T15:35:35.513Z,75.11
2022-12-03T15:40:56.567Z,75.46
2022-12-03T15:46:17.353Z,75.30
2022-12-03T15:51:37.840Z,75.22
2022-12-03T15:56:58.563Z,75.25
2022-12-03T16:02:18.944Z,75.42
2022-12-03T16:07:39.963Z,75.40
2022-12-03T16:13:00.647Z,75.22
2022-12-03T16:18:21.330Z,75.30
2022-12-03T16:23:41.917Z,75.22
2022-12-03T16:29:02.504Z,75.15
2022-12-03T16:34:22.974Z,75.28
2022-12-03T16:39:43.441Z,75.25
2022-12-03T16:45:04.486Z,75.32
2022-12-03T16:50:29.851Z,75.26
2022-12-03T16:55:50.799Z,75.29
2022-12-03T17:01:12.411Z,75.46
2022-12-03T17:06:33.138Z,75.36
2022-12-03T17:11:53.963Z,75.43
2022-12-03T17:17:14.505Z,75.27
2022-12-03T17:22:35.135Z,75.30
2022-12-03T17:27:56.370Z,75.30
2022-12-03T17:33:16.954Z,75.23
2022-12-03T17:38:39.460Z,75.29
2022-12-03T17:44:01.853Z,75.22
2022-12-03T17:49:29.895Z,75.18
2022-12-03T18:00:33.642Z,75.35
2022-12-03T18:05:55.213Z,75.42
2022-12-03T18:11:15.764Z,75.33
2022-12-03T18:16:36.444Z,75.26
2022-12-03T18:21:57.330Z,75.28
2022-12-03T18:27:18.062Z,75.45
2022-12-03T18:32:38.366Z,75.57
2022-12-03T18:37:59.690Z,75.50
2022-12-03T18:43:20.813Z,75.42
2022-12-03T18:48:43.223Z,75.17
2022-12-03T18:54:04.165Z,75.32
2022-12-03T18:59:24.340Z,75.26
2022-12-03T19:04:45.018Z,75.30
2022-12-03T19:10:05.883Z,75.31
2022-12-03T19:15:26.462Z,75.28
2022-12-03T19:20:46.932Z,75.33
2022-12-03T19:26:10.007Z,75.17
2022-12-03T19:31:33.298Z,75.26
2022-12-03T19:36:54.168Z,75.17
2022-12-03T19:42:14.606Z,74.98
2022-12-03T19:47:37.149Z,75.18
2022-12-03T19:52:58.018Z,75.36
2022-12-03T19:58:18.477Z,75.18
2022-12-03T20:03:43.179Z,75.09
2022-12-03T20:09:07.609Z,75.07
2022-12-03T20:14:28.162Z,75.01
2022-12-03T20:19:48.947Z,75.00
2022-12-03T20:25:10.139Z,75.02
2022-12-03T20:30:30.620Z,75.26
2022-12-03T20:35:55.486Z,75.09
2022-12-03T20:41:18.646Z,75.36
2022-12-03T20:46:39.451Z,75.52
2022-12-03T20:52:04.343Z,75.47
2022-12-03T20:57:25.156Z,75.35
2022-12-03T21:02:45.788Z,75.29
2022-12-03T21:08:06.529Z,75.26
2022-12-03T21:13:30.979Z,75.50
2022-12-03T21:18:52.698Z,75.44
2022-12-03T21:24:13.793Z,75.52
2022-12-03T21:29:34.247Z,75.76
2022-12-03T21:34:54.886Z,75.62
2022-12-03T21:40:15.639Z,75.59
2022-12-03T21:45:39.917Z,75.56
2022-12-03T21:51:03.604Z,75.65
2022-12-03T21:56:24.732Z,75.63
2022-12-03T22:01:47.374Z,75.72
2022-12-03T22:07:08.102Z,75.82
2022-12-03T22:12:28.575Z,75.89
2022-12-03T22:17:48.976Z,75.80
2022-12-03T22:23:09.521Z,75.82
2022-12-03T22:28:30.032Z,76.01
2022-12-03T22:33:50.689Z,76.00
2022-12-03T22:39:11.329Z,75.93
2022-12-03T22:44:32.238Z,76.06
2022-12-03T22:49:53.099Z,75.98
2022-12-03T22:55:14.414Z,75.80
2022-12-03T23:00:37.965Z,75.83
2022-12-03T23:05:58.654Z,75.49
2022-12-03T23:11:20.030Z,75.73
2022-12-03T23:16:41.012Z,75.74
2022-12-03T23:22:01.618Z,75.90
2022-12-03T23:27:21.883Z,75.69
2022-12-03T23:40:32.783Z,75.58
2022-12-03T23:45:53.507Z,75.33
2022-12-03T23:51:18.441Z,75.64
2022-12-03T23:56:40.855Z,75.86
